createdAt,value
2023-04-06T00:00:13.506Z,47.50
2023-04-06T00:01:13.459Z,49.10
2023-04-06T00:02:13.477Z,65.09
2023-04-06T00:03:13.522Z,49.83
2023-04-06T00:04:13.503Z,51.29
2023-04-06T00:05:13.456Z,50.36
2023-04-06T00:06:14.899Z,53.85
2023-04-06T00:07:13.438Z,47.60
2023-04-06T00:08:13.430Z,46.87
2023-04-06T00:09:13.418Z,48.52
2023-04-06T00:10:13.401Z,52.53
2023-04-06T00:11:13.393Z,46.52
2023-04-06T00:12:13.365Z,49.94
2023-04-06T00:13:13.389Z,45.70
2023-04-06T00:14:13.364Z,44.92
2023-04-06T00:15:13.347Z,46.12
2023-04-06T00:16:13.406Z,48.47
2023-04-06T00:17:13.342Z,51.84
2023-04-06T00:18:13.389Z,52.01
2023-04-06T00:19:13.370Z,56.55
2023-04-06T00:20:13.295Z,50.98
2023-04-06T00:21:13.338Z,48.98
2023-04-06T00:22:13.330Z,54.93
2023-04-06T00:23:13.268Z,50.62
2023-04-06T00:24:13.250Z,51.65
2023-04-06T00:25:13.244Z,54.60
2023-04-06T00:26:13.259Z,60.98
2023-04-06T00:27:13.233Z,50.65
2023-04-06T00:28:13.213Z,55.14
2023-04-06T00:29:13.208Z,49.12
2023-04-06T00:30:13.198Z,49.89
2023-04-06T00:31:13.163Z,49.92
2023-04-06T00:32:13.303Z,52.37
2023-04-06T00:33:13.189Z,47.80
2023-04-06T00:34:13.178Z,46.52
2023-04-06T00:35:13.135Z,51.59
2023-04-06T00:36:13.228Z,54.09
2023-04-06T00:37:13.157Z,52.23
2023-04-06T00:38:13.158Z,54.53
2023-04-06T00:39:13.145Z,56.26
2023-04-06T00:40:13.085Z,54.88
2023-04-06T00:41:13.104Z,51.87
2023-04-06T00:42:13.098Z,51.92
2023-04-06T00:43:13.085Z,49.17
2023-04-06T00:44:13.105Z,51.33
2023-04-06T00:45:13.102Z,61.80
2023-04-06T00:46:13.096Z,55.96
2023-04-06T00:47:13.036Z,55.88
2023-04-06T00:48:13.037Z,47.16
2023-04-06T00:49:13.023Z,47.56
2023-04-06T00:50:12.991Z,50.35
2023-04-06T00:51:13.025Z,53.30
2023-04-06T00:52:12.990Z,49.17
2023-04-06T00:53:12.982Z,48.68
2023-04-06T00:54:12.991Z,55.70
2023-04-06T00:55:12.965Z,47.67
2023-04-06T00:56:12.952Z,51.33
2023-04-06T00:57:12.949Z,50.31
2023-04-06T00:58:12.929Z,49.40
2023-04-06T00:59:14.079Z,48.32
2023-04-06T01:00:12.933Z,49.80
2023-04-06T01:01:12.910Z,49.21
2023-04-06T01:02:12.903Z,47.51
2023-04-06T01:03:12.879Z,46.07
2023-04-06T01:04:12.857Z,48.08
2023-04-06T01:05:12.936Z,48.45
2023-04-06T01:06:12.831Z,47.44
2023-04-06T01:07:12.844Z,51.07
2023-04-06T01:08:12.820Z,48.53
2023-04-06T01:09:12.839Z,51.13
2023-04-06T01:10:12.842Z,55.06
2023-04-06T01:11:12.816Z,48.98
2023-04-06T01:12:12.828Z,50.25
2023-04-06T01:13:12.827Z,50.29
2023-04-06T01:14:12.779Z,51.81
2023-04-06T01:15:12.750Z,50.39
2023-04-06T01:16:12.768Z,54.08
2023-04-06T01:17:12.771Z,48.75
2023-04-06T01:18:12.760Z,49.32
2023-04-06T01:19:12.751Z,51.75
2023-04-06T01:20:12.764Z,50.02
2023-04-06T01:21:12.713Z,47.11
2023-04-06T01:22:12.747Z,49.35
2023-04-06T01:23:12.764Z,52.85
2023-04-06T01:24:12.680Z,48.16
2023-04-06T01:25:12.722Z,52.96
2023-04-06T01:26:12.645Z,48.20
2023-04-06T01:27:12.677Z,51.03
2023-04-06T01:28:12.790Z,52.84
2023-04-06T01:29:12.633Z,47.55
2023-04-06T01:30:12.641Z,65.80
2023-04-06T01:31:12.633Z,51.32
2023-04-06T01:32:12.660Z,49.41
2023-04-06T01:33:12.599Z,52.45
2023-04-06T01:34:12.607Z,58.14
2023-04-06T01:35:12.592Z,58.59
2023-04-06T01:36:12.546Z,51.06
2023-04-06T01:37:12.559Z,49.39
2023-04-06T01:38:12.547Z,49.38
2023-04-06T01:39:12.530Z,60.23
2023-04-06T01:40:12.524Z,54.18
2023-04-06T01:41:12.526Z,54.07
2023-04-06T01:42:12.547Z,46.40
2023-04-06T01:43:12.501Z,47.17
2023-04-06T01:44:12.467Z,62.60
2023-04-06T01:45:12.493Z,48.67
2023-04-06T01:46:12.508Z,51.13
2023-04-06T01:47:12.519Z,47.88
2023-04-06T01:48:12.457Z,48.50
2023-04-06T01:49:12.462Z,65.96
2023-04-06T01:50:12.435Z,52.39
2023-04-06T01:51:12.424Z,49.01
2023-04-06T01:52:12.446Z,51.91
2023-04-06T01:53:12.481Z,51.62
2023-04-06T01:54:12.407Z,52.75
2023-04-06T01:55:12.432Z,53.60
2023-04-06T01:56:12.389Z,55.05
2023-04-06T01:57:12.363Z,49.99
2023-04-06T01:58:12.380Z,51.85
2023-04-06T01:59:12.440Z,58.87
2023-04-06T02:00:12.350Z,50.74
2023-04-06T02:01:12.378Z,51.85
2023-04-06T02:02:12.427Z,53.60
2023-04-06T02:03:12.531Z,48.46
2023-04-06T02:04:12.350Z,50.56
2023-04-06T02:05:12.268Z,52.00
2023-04-06T02:06:13.274Z,51.34
2023-04-06T02:07:12.295Z,53.25
2023-04-06T02:08:12.295Z,53.68
2023-04-06T02:09:12.276Z,47.39
2023-04-06T02:10:12.271Z,47.57
2023-04-06T02:11:12.251Z,49.97
2023-04-06T02:12:12.230Z,50.16
2023-04-06T02:13:12.214Z,48.07
2023-04-06T02:14:12.225Z,54.05
2023-04-06T02:15:12.231Z,51.00
2023-04-06T02:16:12.287Z,52.10
2023-04-06T02:17:12.171Z,47.87
2023-04-06T02:18:12.177Z,51.60
2023-04-06T02:19:12.141Z,49.38
2023-04-06T02:20:12.176Z,54.59
2023-04-06T02:21:12.182Z,55.39
2023-04-06T02:22:12.161Z,54.58
2023-04-06T02:23:12.117Z,48.71
2023-04-06T02:24:44.130Z,48.99
2023-04-06T02:25:12.111Z,53.99
2023-04-06T02:26:12.088Z,63.90
2023-04-06T02:27:12.086Z,52.44
2023-04-06T02:28:12.081Z,52.72
2023-04-06T02:29:12.099Z,54.47
2023-04-06T02:30:12.098Z,70.52
2023-04-06T02:31:12.054Z,56.89
2023-04-06T02:32:12.068Z,53.58
2023-04-06T02:33:12.042Z,50.94
2023-04-06T02:34:12.019Z,54.68
2023-04-06T02:35:12.011Z,61.41
2023-04-06T02:36:12.018Z,54.37
2023-04-06T02:37:12.022Z,49.38
2023-04-06T02:38:11.985Z,56.57
2023-04-06T02:39:12.008Z,51.22
2023-04-06T02:40:11.973Z,54.87
2023-04-06T02:41:11.973Z,52.43
2023-04-06T02:42:11.961Z,55.95
2023-04-06T02:43:11.915Z,51.03
2023-04-06T02:44:11.934Z,53.28
2023-04-06T02:45:11.953Z,52.49
2023-04-06T02:46:11.948Z,54.41
2023-04-06T02:47:11.913Z,52.58
2023-04-06T02:48:11.916Z,56.13
2023-04-06T02:49:11.885Z,67.40
2023-04-06T02:50:11.871Z,50.97
2023-04-06T02:51:11.887Z,52.18
2023-04-06T02:52:11.856Z,53.63
2023-04-06T02:53:11.851Z,53.39
2023-04-06T02:54:11.830Z,50.32
2023-04-06T02:55:11.813Z,49.24
2023-04-06T02:56:11.819Z,53.47
2023-04-06T02:57:11.837Z,52.25
2023-04-06T02:58:11.824Z,56.33
2023-04-06T02:59:12.037Z,55.15
2023-04-06T03:00:11.778Z,54.43
2023-04-06T03:01:11.804Z,53.64
2023-04-06T03:02:11.761Z,57.54
2023-04-06T03:03:11.784Z,54.53
2023-04-06T03:04:11.788Z,61.31
2023-04-06T03:05:11.742Z,59.98
2023-04-06T03:06:11.721Z,54.79
2023-04-06T03:07:11.711Z,52.77
2023-04-06T03:08:11.683Z,50.87
2023-04-06T03:09:11.683Z,53.07
2023-04-06T03:10:11.665Z,50.97
2023-04-06T03:11:11.765Z,57.02
2023-04-06T03:12:11.720Z,56.15
2023-04-06T03:13:11.651Z,55.48
2023-04-06T03:14:11.674Z,54.47
2023-04-06T03:15:11.651Z,52.73
2023-04-06T03:16:11.701Z,56.61
2023-04-06T03:17:11.621Z,57.42
2023-04-06T03:18:11.674Z,54.85
2023-04-06T03:19:11.592Z,62.14
2023-04-06T03:20:11.599Z,58.66
2023-04-06T03:21:11.565Z,59.15
2023-04-06T03:22:11.613Z,60.69
2023-04-06T03:23:45.874Z,57.09
2023-04-06T03:24:11.567Z,56.12
2023-04-06T03:25:11.542Z,57.53
2023-04-06T03:26:11.531Z,54.68
2023-04-06T03:27:11.524Z,59.59
2023-04-06T03:28:11.533Z,62.84
2023-04-06T03:29:12.514Z,57.78
2023-04-06T03:30:11.503Z,55.78
2023-04-06T03:31:11.526Z,60.85
2023-04-06T03:32:11.566Z,55.64
2023-04-06T03:33:11.516Z,56.94
2023-04-06T03:34:11.441Z,66.16
2023-04-06T03:35:11.451Z,59.55
2023-04-06T03:36:11.494Z,60.04
2023-04-06T03:37:11.422Z,60.16
2023-04-06T03:38:11.420Z,58.90
2023-04-06T03:39:11.462Z,58.10
2023-04-06T03:40:11.386Z,58.74
2023-04-06T03:41:11.444Z,61.39
2023-04-06T03:42:11.358Z,64.54
2023-04-06T03:43:11.410Z,57.79
2023-04-06T03:44:11.362Z,57.48
2023-04-06T03:45:11.381Z,58.85
2023-04-06T03:46:11.375Z,58.82
2023-04-06T03:47:11.308Z,58.71
2023-04-06T03:48:11.321Z,57.05
2023-04-06T03:49:11.300Z,57.20
2023-04-06T03:50:11.336Z,57.11
2023-04-06T03:51:11.309Z,57.40
2023-04-06T03:52:11.275Z,57.86
2023-04-06T03:53:11.409Z,58.77
2023-04-06T03:54:11.294Z,59.73
2023-04-06T03:55:11.277Z,60.78
2023-04-06T03:56:11.271Z,61.58
2023-04-06T03:57:11.244Z,67.69
2023-04-06T03:58:11.222Z,59.06
2023-04-06T03:59:11.456Z,60.55
2023-04-06T04:00:11.185Z,67.31
2023-04-06T04:01:11.235Z,62.27
2023-04-06T04:02:11.240Z,60.62
2023-04-06T04:03:11.515Z,59.72
2023-04-06T04:04:11.165Z,59.58
2023-04-06T04:05:11.203Z,59.44
2023-04-06T04:06:11.172Z,60.84
2023-04-06T04:07:11.171Z,59.66
2023-04-06T04:08:11.154Z,62.81
2023-04-06T04:09:11.242Z,64.46
2023-04-06T04:10:11.111Z,60.46
2023-04-06T04:11:12.114Z,60.87
2023-04-06T04:12:11.080Z,63.33
2023-04-06T04:13:11.075Z,59.67
2023-04-06T04:14:11.046Z,61.38
2023-04-06T04:15:11.057Z,59.80
2023-04-06T04:16:11.199Z,60.22
2023-04-06T04:17:11.015Z,59.18
2023-04-06T04:18:11.073Z,60.76
2023-04-06T04:19:11.163Z,68.59
2023-04-06T04:20:11.058Z,67.69
2023-04-06T04:21:11.022Z,65.13
2023-04-06T04:22:11.015Z,67.20
2023-04-06T04:23:11.002Z,68.02
2023-04-06T04:24:11.004Z,70.09
2023-04-06T04:25:10.958Z,58.95
2023-04-06T04:26:10.956Z,58.91
2023-04-06T04:27:10.991Z,62.06
2023-04-06T04:28:10.931Z,64.66
2023-04-06T04:29:11.045Z,60.91
2023-04-06T04:30:10.911Z,57.95
2023-04-06T04:31:10.971Z,59.05
2023-04-06T04:32:11.017Z,60.74
2023-04-06T04:33:10.907Z,60.34
2023-04-06T04:34:10.896Z,59.56
2023-04-06T04:35:10.911Z,60.33
2023-04-06T04:36:10.876Z,61.84
2023-04-06T04:37:10.872Z,60.51
2023-04-06T04:38:10.853Z,61.32
2023-04-06T04:39:10.874Z,67.15
2023-04-06T04:40:10.841Z,59.72
2023-04-06T04:41:10.829Z,60.15
2023-04-06T04:42:10.823Z,60.73
2023-04-06T04:43:10.807Z,60.12
2023-04-06T04:44:10.763Z,61.35
2023-04-06T04:45:10.804Z,62.26
2023-04-06T04:46:10.881Z,60.86
2023-04-06T04:47:10.785Z,60.20
2023-04-06T04:48:10.797Z,62.05
2023-04-06T04:49:10.887Z,59.80
2023-04-06T04:50:10.739Z,60.45
2023-04-06T04:51:10.748Z,60.95
2023-04-06T04:52:10.755Z,65.20
2023-04-06T04:53:10.729Z,60.58
2023-04-06T04:54:10.711Z,61.94
2023-04-06T04:55:10.689Z,67.36
2023-04-06T04:56:10.678Z,61.24
2023-04-06T04:57:10.670Z,61.20
2023-04-06T04:58:10.654Z,61.12
2023-04-06T04:59:10.848Z,66.47
2023-04-06T05:00:10.657Z,61.02
2023-04-06T05:01:10.666Z,68.31
2023-04-06T05:02:10.721Z,60.15
2023-04-06T05:03:10.665Z,60.34
2023-04-06T05:04:10.596Z,60.15
2023-04-06T05:05:10.613Z,68.86
2023-04-06T05:06:13.231Z,61.83
2023-04-06T05:07:10.587Z,63.42
2023-04-06T05:08:10.593Z,63.01
2023-04-06T05:09:10.702Z,64.34
2023-04-06T05:10:10.536Z,62.48
2023-04-06T05:11:10.547Z,61.67
2023-04-06T05:12:10.538Z,61.93
2023-04-06T05:13:10.549Z,61.55
2023-04-06T05:14:10.521Z,62.05
2023-04-06T05:15:10.514Z,62.08
2023-04-06T05:16:10.505Z,61.60
2023-04-06T05:17:10.808Z,61.79
2023-04-06T05:18:10.538Z,67.97
2023-04-06T05:19:10.661Z,64.19
2023-04-06T05:20:10.460Z,68.83
2023-04-06T05:21:10.441Z,66.03
2023-04-06T05:22:10.461Z,64.16
2023-04-06T05:23:10.457Z,70.37
2023-04-06T05:24:10.472Z,62.33
2023-04-06T05:25:10.479Z,62.66
2023-04-06T05:26:10.467Z,62.12
2023-04-06T05:27:10.478Z,61.02
2023-04-06T05:28:10.457Z,62.02
2023-04-06T05:29:10.600Z,60.35
2023-04-06T05:30:10.522Z,60.60
2023-04-06T05:31:10.406Z,68.85
2023-04-06T05:32:10.330Z,63.02
2023-04-06T05:33:10.377Z,59.74
2023-04-06T05:34:10.366Z,62.22
2023-04-06T05:35:10.319Z,61.17
2023-04-06T05:36:11.009Z,61.26
2023-04-06T05:37:10.316Z,60.95
2023-04-06T05:38:10.296Z,60.75
2023-04-06T05:39:10.496Z,63.85
2023-04-06T05:40:10.338Z,60.31
2023-04-06T05:41:10.261Z,59.40
2023-04-06T05:42:10.269Z,60.72
2023-04-06T05:43:10.236Z,60.93
2023-04-06T05:44:10.215Z,66.74
2023-04-06T05:45:10.228Z,59.31
2023-04-06T05:46:10.301Z,59.94
2023-04-06T05:47:10.180Z,60.84
2023-04-06T05:48:10.216Z,71.07
2023-04-06T05:49:10.381Z,67.76
2023-04-06T05:50:10.197Z,63.83
2023-04-06T05:51:10.147Z,68.18
2023-04-06T05:52:10.143Z,66.14
2023-04-06T05:53:10.129Z,72.07
2023-04-06T05:54:10.136Z,70.20
2023-04-06T05:55:10.750Z,67.59
2023-04-06T05:56:11.090Z,62.09
2023-04-06T05:57:10.120Z,60.87
2023-04-06T05:58:10.084Z,59.86
2023-04-06T05:59:10.320Z,60.15
2023-04-06T06:00:10.062Z,67.28
2023-04-06T06:01:10.087Z,59.20
2023-04-06T06:02:10.123Z,59.55
2023-04-06T06:03:10.093Z,65.89
2023-04-06T06:04:10.019Z,60.08
2023-04-06T06:05:10.071Z,60.19
2023-04-06T06:06:09.999Z,59.90
2023-04-06T06:07:09.987Z,57.90
2023-04-06T06:08:09.977Z,58.88
2023-04-06T06:09:10.067Z,57.58
2023-04-06T06:10:09.976Z,60.41
2023-04-06T06:11:09.987Z,60.70
2023-04-06T06:12:10.866Z,58.12
2023-04-06T06:13:09.930Z,64.13
2023-04-06T06:14:09.913Z,58.72
2023-04-06T06:15:09.900Z,59.94
2023-04-06T06:16:09.943Z,59.98
2023-04-06T06:17:09.894Z,66.37
2023-04-06T06:18:09.930Z,64.46
2023-04-06T06:19:09.933Z,58.80
2023-04-06T06:20:09.858Z,59.13
2023-04-06T06:21:09.852Z,56.02
2023-04-06T06:22:09.854Z,57.31
2023-04-06T06:23:09.846Z,56.66
2023-04-06T06:24:09.836Z,60.14
2023-04-06T06:25:09.856Z,56.90
2023-04-06T06:26:09.814Z,57.20
2023-04-06T06:27:09.815Z,57.17
2023-04-06T06:28:09.801Z,57.68
2023-04-06T06:29:09.998Z,62.67
2023-04-06T06:30:09.747Z,71.76
2023-04-06T06:31:09.768Z,66.31
2023-04-06T06:32:09.765Z,65.18
2023-04-06T06:33:09.733Z,66.15
2023-04-06T06:34:09.769Z,65.90
2023-04-06T06:35:09.716Z,65.72
2023-04-06T06:36:09.734Z,67.14
2023-04-06T06:37:09.689Z,73.11
2023-04-06T06:38:09.664Z,74.69
2023-04-06T06:39:10.102Z,68.96
2023-04-06T06:40:09.669Z,61.92
2023-04-06T06:41:09.667Z,58.46
2023-04-06T06:42:09.675Z,64.22
2023-04-06T06:43:09.700Z,61.61
2023-04-06T06:44:09.897Z,63.87
2023-04-06T06:45:09.615Z,61.86
2023-04-06T06:46:09.641Z,63.78
2023-04-06T06:47:09.621Z,58.32
2023-04-06T06:48:09.653Z,59.57
2023-04-06T06:49:09.605Z,60.48
2023-04-06T06:50:09.638Z,60.34
2023-04-06T06:51:09.595Z,62.47
2023-04-06T06:52:09.569Z,60.18
2023-04-06T06:53:09.564Z,60.47
2023-04-06T06:54:09.773Z,65.95
2023-04-06T06:55:09.557Z,58.31
2023-04-06T06:56:09.730Z,65.82
2023-04-06T06:57:09.552Z,58.21
2023-04-06T06:58:09.498Z,58.21
2023-04-06T06:59:09.506Z,63.34
2023-04-06T07:00:10.933Z,56.66
2023-04-06T07:01:09.624Z,59.04
2023-04-06T07:02:09.495Z,59.29
2023-04-06T07:03:09.468Z,56.50
2023-04-06T07:04:09.665Z,55.53
2023-04-06T07:05:19.965Z,63.87
2023-04-06T07:06:10.436Z,57.64
2023-04-06T07:07:09.450Z,59.97
2023-04-06T07:08:09.394Z,58.13
2023-04-06T07:09:09.399Z,62.76
2023-04-06T07:10:09.375Z,55.78
2023-04-06T07:11:09.399Z,56.01
2023-04-06T07:12:09.332Z,62.57
2023-04-06T07:13:09.387Z,61.03
2023-04-06T07:14:09.520Z,56.74
2023-04-06T07:15:09.319Z,56.45
2023-04-06T07:16:09.389Z,57.86
2023-04-06T07:17:09.780Z,56.22
2023-04-06T07:18:09.383Z,56.82
2023-04-06T07:19:09.284Z,56.05
2023-04-06T07:20:09.302Z,56.14
2023-04-06T07:21:09.314Z,56.84
2023-04-06T07:22:09.237Z,56.12
2023-04-06T07:23:09.284Z,56.25
2023-04-06T07:24:09.511Z,58.88
2023-04-06T07:25:09.219Z,57.20
2023-04-06T07:26:09.224Z,60.13
2023-04-06T07:27:09.221Z,58.31
2023-04-06T07:28:09.241Z,58.61
2023-04-06T07:29:09.196Z,60.86
2023-04-06T07:30:09.182Z,62.33
2023-04-06T07:31:09.176Z,59.14
2023-04-06T07:32:09.222Z,60.22
2023-04-06T07:33:09.156Z,62.03
2023-04-06T07:34:09.327Z,60.77
2023-04-06T07:35:09.115Z,58.43
2023-04-06T07:36:09.204Z,60.45
2023-04-06T07:37:09.116Z,59.15
2023-04-06T07:38:09.148Z,57.80
2023-04-06T07:39:09.097Z,60.97
2023-04-06T07:40:09.143Z,56.76
2023-04-06T07:41:09.085Z,59.04
2023-04-06T07:42:09.095Z,58.10
2023-04-06T07:43:09.087Z,56.96
2023-04-06T07:44:09.353Z,58.04
2023-04-06T07:45:09.039Z,63.44
2023-04-06T07:46:09.133Z,61.25
2023-04-06T07:47:09.010Z,58.51
2023-04-06T07:48:09.046Z,57.86
2023-04-06T07:49:09.013Z,57.30
2023-04-06T07:50:08.976Z,58.62
2023-04-06T07:51:09.001Z,61.02
2023-04-06T07:52:08.969Z,58.07
2023-04-06T07:53:08.981Z,57.07
2023-04-06T07:54:09.112Z,56.00
2023-04-06T07:55:08.964Z,57.78
2023-04-06T07:56:08.969Z,64.08
2023-04-06T07:57:08.947Z,57.29
2023-04-06T07:58:08.916Z,56.95
2023-04-06T07:59:08.953Z,56.50
2023-04-06T08:00:08.868Z,56.66
2023-04-06T08:01:08.890Z,57.50
2023-04-06T08:02:08.932Z,56.77
2023-04-06T08:03:08.927Z,57.20
2023-04-06T08:04:09.193Z,58.66
2023-04-06T08:05:08.867Z,55.28
2023-04-06T08:06:08.926Z,57.46
2023-04-06T08:07:08.853Z,57.87
2023-04-06T08:08:08.846Z,65.42
2023-04-06T08:09:08.802Z,56.95
2023-04-06T08:10:08.801Z,57.02
2023-04-06T08:11:08.807Z,57.43
2023-04-06T08:12:08.773Z,57.59
2023-04-06T08:13:08.774Z,55.87
2023-04-06T08:14:09.054Z,55.77
2023-04-06T08:15:08.751Z,54.56
2023-04-06T08:16:08.791Z,56.76
2023-04-06T08:17:08.774Z,57.80
2023-04-06T08:18:08.710Z,57.31
2023-04-06T08:19:08.773Z,57.21
2023-04-06T08:20:08.680Z,57.88
2023-04-06T08:21:08.738Z,57.94
2023-04-06T08:22:08.695Z,59.11
2023-04-06T08:23:08.644Z,56.80
2023-04-06T08:24:40.574Z,56.29
2023-04-06T08:25:08.653Z,58.78
2023-04-06T08:26:08.666Z,57.71
2023-04-06T08:27:08.686Z,57.69
2023-04-06T08:28:08.626Z,64.71
2023-04-06T08:29:08.608Z,56.43
2023-04-06T08:30:08.644Z,57.35
2023-04-06T08:31:08.585Z,56.75
2023-04-06T08:32:08.562Z,60.95
2023-04-06T08:33:08.624Z,56.32
2023-04-06T08:34:10.276Z,56.09
2023-04-06T08:35:08.545Z,61.55
2023-04-06T08:36:08.584Z,56.13
2023-04-06T08:37:08.559Z,61.89
2023-04-06T08:38:08.537Z,61.36
2023-04-06T08:39:08.535Z,57.62
2023-04-06T08:40:08.485Z,55.79
2023-04-06T08:41:08.497Z,64.20
2023-04-06T08:42:08.482Z,60.62
2023-04-06T08:43:08.515Z,54.45
2023-04-06T08:44:08.637Z,54.22
2023-04-06T08:45:08.434Z,63.16
2023-04-06T08:46:08.493Z,55.85
2023-04-06T08:47:08.443Z,56.01
2023-04-06T08:48:08.463Z,55.46
2023-04-06T08:49:08.425Z,56.74
2023-04-06T08:50:08.423Z,58.98
2023-04-06T08:51:08.430Z,56.92
2023-04-06T08:52:08.396Z,56.74
2023-04-06T08:53:08.383Z,56.45
2023-04-06T08:54:08.657Z,61.70
2023-04-06T08:55:08.353Z,58.96
2023-04-06T08:56:08.380Z,58.01
2023-04-06T08:57:08.334Z,57.57
2023-04-06T08:58:08.314Z,57.83
2023-04-06T08:59:08.350Z,58.03
2023-04-06T09:00:08.329Z,55.75
2023-04-06T09:01:08.286Z,57.69
2023-04-06T09:02:08.422Z,58.83
2023-04-06T09:03:08.439Z,57.90
2023-04-06T09:04:09.408Z,57.59
2023-04-06T09:05:09.269Z,55.69
2023-04-06T09:06:08.292Z,56.80
2023-04-06T09:07:08.253Z,64.60
2023-04-06T09:08:08.248Z,59.10
2023-04-06T09:09:08.231Z,59.03
2023-04-06T09:10:08.251Z,57.57
2023-04-06T09:11:08.230Z,59.55
2023-04-06T09:12:08.216Z,62.89
2023-04-06T09:13:08.181Z,59.80
2023-04-06T09:14:08.493Z,57.59
2023-04-06T09:15:08.190Z,58.79
2023-04-06T09:16:08.226Z,58.57
2023-04-06T09:17:08.197Z,56.36
2023-04-06T09:18:08.207Z,58.64
2023-04-06T09:19:08.150Z,64.88
2023-04-06T09:20:08.167Z,56.49
2023-04-06T09:21:08.093Z,58.94
2023-04-06T09:22:08.131Z,56.16
2023-04-06T09:23:08.073Z,56.41
2023-04-06T09:24:08.253Z,56.32
2023-04-06T09:25:08.098Z,55.61
2023-04-06T09:26:08.066Z,56.45
2023-04-06T09:27:08.043Z,53.94
2023-04-06T09:28:08.088Z,56.90
2023-04-06T09:29:08.034Z,56.24
2023-04-06T09:30:08.041Z,62.59
2023-04-06T09:31:08.048Z,55.84
2023-04-06T09:32:08.017Z,56.11
2023-04-06T09:33:08.122Z,58.61
2023-04-06T09:34:08.325Z,55.19
2023-04-06T09:35:07.980Z,56.33
2023-04-06T09:36:08.002Z,54.26
2023-04-06T09:37:07.937Z,60.31
2023-04-06T09:38:07.946Z,67.90
2023-04-06T09:39:07.921Z,61.86
2023-04-06T09:40:07.943Z,58.67
2023-04-06T09:41:07.925Z,63.16
2023-04-06T09:42:07.917Z,64.32
2023-04-06T09:43:07.920Z,60.41
2023-04-06T09:44:08.120Z,63.93
2023-04-06T09:45:07.861Z,55.98
2023-04-06T09:46:07.874Z,56.40
2023-04-06T09:47:07.973Z,56.15
2023-04-06T09:48:07.855Z,60.26
2023-04-06T09:49:08.054Z,56.44
2023-04-06T09:50:07.846Z,57.76
2023-04-06T09:51:07.861Z,59.62
2023-04-06T09:52:07.813Z,66.02
2023-04-06T09:53:07.814Z,62.26
2023-04-06T09:54:08.013Z,60.89
2023-04-06T09:55:07.784Z,62.53
2023-04-06T09:56:07.783Z,63.74
2023-04-06T09:57:07.821Z,59.78
2023-04-06T09:58:08.220Z,65.53
2023-04-06T09:59:08.164Z,59.45
2023-04-06T10:00:07.720Z,57.41
2023-04-06T10:01:07.819Z,66.28
2023-04-06T10:02:07.743Z,62.46
2023-04-06T10:03:09.268Z,61.72
2023-04-06T10:04:09.414Z,62.49
2023-04-06T10:05:07.732Z,66.62
2023-04-06T10:06:07.684Z,65.57
2023-04-06T10:07:07.663Z,61.39
2023-04-06T10:08:07.673Z,62.38
2023-04-06T10:09:07.649Z,58.14
2023-04-06T10:10:07.641Z,58.77
2023-04-06T10:11:07.630Z,59.41
2023-04-06T10:12:07.600Z,59.33
2023-04-06T10:13:07.638Z,59.75
2023-04-06T10:14:07.978Z,57.44
2023-04-06T10:15:07.600Z,58.30
2023-04-06T10:16:07.628Z,60.14
2023-04-06T10:17:07.604Z,58.75
2023-04-06T10:18:07.638Z,56.98
2023-04-06T10:19:07.530Z,59.41
2023-04-06T10:20:07.542Z,60.26
2023-04-06T10:21:07.562Z,57.68
2023-04-06T10:22:07.509Z,58.82
2023-04-06T10:23:07.528Z,58.50
2023-04-06T10:24:08.079Z,59.11
2023-04-06T10:25:07.481Z,60.33
2023-04-06T10:26:07.479Z,60.06
2023-04-06T10:27:07.502Z,61.62
2023-04-06T10:28:07.455Z,61.93
2023-04-06T10:29:07.475Z,64.21
2023-04-06T10:30:07.471Z,58.35
2023-04-06T10:31:07.527Z,64.16
2023-04-06T10:32:07.457Z,58.81
2023-04-06T10:33:07.468Z,57.06
2023-04-06T10:34:07.705Z,64.43
2023-04-06T10:35:07.448Z,61.68
2023-04-06T10:36:07.394Z,59.80
2023-04-06T10:37:07.366Z,61.13
2023-04-06T10:38:07.375Z,59.87
2023-04-06T10:39:07.383Z,60.48
2023-04-06T10:40:07.355Z,62.71
2023-04-06T10:41:07.342Z,60.18
2023-04-06T10:42:07.332Z,64.06
2023-04-06T10:43:07.344Z,60.79
2023-04-06T10:44:07.615Z,59.23
2023-04-06T10:45:07.293Z,57.40
2023-04-06T10:46:07.346Z,63.33
2023-04-06T10:47:07.283Z,59.84
2023-04-06T10:48:07.281Z,60.84
2023-04-06T10:49:07.264Z,62.28
2023-04-06T10:50:07.250Z,57.96
2023-04-06T10:51:07.246Z,56.02
2023-04-06T10:52:07.202Z,61.29
2023-04-06T10:53:07.227Z,55.87
2023-04-06T10:54:07.222Z,55.50
2023-04-06T10:55:07.258Z,62.60
2023-04-06T10:56:07.198Z,56.48
2023-04-06T10:57:07.190Z,57.82
2023-04-06T10:58:07.168Z,61.15
2023-04-06T10:59:07.178Z,58.36
2023-04-06T11:00:07.145Z,58.90
2023-04-06T11:01:07.208Z,54.21
2023-04-06T11:02:07.152Z,55.07
2023-04-06T11:03:07.109Z,53.34
2023-04-06T11:04:07.190Z,55.52
2023-04-06T11:05:07.169Z,62.56
2023-04-06T11:06:07.103Z,54.58
2023-04-06T11:07:07.074Z,57.64
2023-04-06T11:08:07.088Z,57.56
2023-04-06T11:09:07.109Z,57.47
2023-04-06T11:10:16.519Z,56.85
2023-04-06T11:11:09.042Z,56.86
2023-04-06T11:12:07.097Z,56.52
2023-04-06T11:13:07.045Z,55.35
2023-04-06T11:14:07.007Z,54.95
2023-04-06T11:15:06.999Z,59.46
2023-04-06T11:16:06.963Z,54.20
2023-04-06T11:17:07.119Z,53.48
2023-04-06T11:18:07.046Z,55.82
2023-04-06T11:19:06.971Z,57.63
2023-04-06T11:20:06.961Z,55.17
2023-04-06T11:21:06.931Z,58.60
2023-04-06T11:22:06.913Z,55.75
2023-04-06T11:23:06.953Z,53.36
2023-04-06T11:24:06.898Z,55.40
2023-04-06T11:25:06.887Z,54.06
2023-04-06T11:26:06.880Z,59.59
2023-04-06T11:27:06.857Z,59.41
2023-04-06T11:28:06.859Z,54.63
2023-04-06T11:29:06.887Z,55.83
2023-04-06T11:30:06.819Z,53.68
2023-04-06T11:31:06.865Z,56.92
2023-04-06T11:32:06.862Z,58.96
2023-04-06T11:33:06.850Z,63.20
2023-04-06T11:34:06.817Z,56.58
2023-04-06T11:35:06.810Z,57.46
2023-04-06T11:36:06.826Z,53.86
2023-04-06T11:37:06.787Z,54.89
2023-04-06T11:38:06.754Z,54.62
2023-04-06T11:39:06.746Z,61.18
2023-04-06T11:40:06.748Z,54.13
2023-04-06T11:41:06.719Z,54.81
2023-04-06T11:42:09.213Z,56.49
2023-04-06T11:43:07.719Z,64.19
2023-04-06T11:44:06.704Z,55.18
2023-04-06T11:45:06.682Z,56.22
2023-04-06T11:46:06.708Z,63.38
2023-04-06T11:47:06.675Z,56.39
2023-04-06T11:48:06.727Z,57.48
2023-04-06T11:49:06.706Z,59.07
2023-04-06T11:50:06.639Z,56.92
2023-04-06T11:51:06.662Z,56.49
2023-04-06T11:52:06.646Z,56.37
2023-04-06T11:53:06.585Z,58.14
2023-04-06T11:54:06.596Z,61.05
2023-04-06T11:55:06.585Z,55.27
2023-04-06T11:56:06.592Z,55.89
2023-04-06T11:57:06.594Z,55.06
2023-04-06T11:58:06.560Z,54.82
2023-04-06T11:59:06.624Z,53.89
2023-04-06T12:00:06.580Z,56.13
2023-04-06T12:01:06.513Z,54.21
2023-04-06T12:02:06.526Z,53.19
2023-04-06T12:03:06.669Z,55.14
2023-04-06T12:04:06.495Z,56.12
2023-04-06T12:05:06.517Z,55.24
2023-04-06T12:06:06.502Z,55.22
2023-04-06T12:07:06.466Z,59.13
2023-04-06T12:08:06.455Z,58.72
2023-04-06T12:09:06.426Z,59.31
2023-04-06T12:10:06.456Z,61.16
2023-04-06T12:11:06.416Z,57.20
2023-04-06T12:12:06.458Z,65.44
2023-04-06T12:13:06.420Z,57.93
2023-04-06T12:14:06.406Z,56.46
2023-04-06T12:15:06.405Z,62.33
2023-04-06T12:16:06.423Z,57.67
2023-04-06T12:17:06.373Z,56.94
2023-04-06T12:18:07.422Z,57.91
2023-04-06T12:19:06.340Z,58.89
2023-04-06T12:20:22.000Z,56.49
2023-04-06T12:21:07.323Z,57.28
2023-04-06T12:22:06.305Z,57.80
2023-04-06T12:23:06.348Z,60.66
2023-04-06T12:24:06.318Z,59.98
2023-04-06T12:25:06.295Z,62.20
2023-04-06T12:26:06.279Z,62.61
2023-04-06T12:27:10.582Z,55.79
2023-04-06T12:28:06.270Z,55.60
2023-04-06T12:29:06.242Z,56.82
2023-04-06T12:30:06.240Z,59.95
2023-04-06T12:31:06.222Z,70.17
2023-04-06T12:32:06.244Z,64.54
2023-04-06T12:33:06.273Z,59.14
2023-04-06T12:34:06.195Z,55.85
2023-04-06T12:35:06.207Z,58.33
2023-04-06T12:36:06.203Z,59.64
2023-04-06T12:37:07.176Z,57.10
2023-04-06T12:38:06.157Z,56.40
2023-04-06T12:39:06.143Z,57.14
2023-04-06T12:40:06.115Z,57.53
2023-04-06T12:41:06.157Z,58.70
2023-04-06T12:42:06.089Z,58.08
2023-04-06T12:43:06.102Z,55.56
2023-04-06T12:44:06.086Z,57.86
2023-04-06T12:45:06.093Z,58.53
2023-04-06T12:46:06.071Z,55.74
2023-04-06T12:47:06.196Z,54.82
2023-04-06T12:48:06.161Z,55.61
2023-04-06T12:49:06.048Z,54.99
2023-04-06T12:50:06.049Z,55.29
2023-04-06T12:51:06.023Z,57.18
2023-04-06T12:52:06.071Z,56.30